Time;durP1;ratioP1;P1;durP2;ratioP2;P2;SDS_P1;SDS_P2;PMS_P1;PMS_P2;Temp;Humidity;BMP_temperature;BMP_pressure;BME280_temperature;BME280_humidity;BME280_pressure;Samples;Min_cycle;Max_cycle;Signal;HPM_P1;HPM_P2
2021/01/25 00:02:02;;;;;;;9.23;3.77;;;2.60;83.70;;;;;;6276454;22;20015;-87
2021/01/25 00:04:28;;;;;;;6.10;3.27;;;2.60;83.80;;;;;;6250677;22;20035;-86
2021/01/25 00:06:54;;;;;;;8.23;4.13;;;2.70;84.90;;;;;;6249904;22;20001;-87
2021/01/25 00:09:19;;;;;;;6.73;3.17;;;2.70;84.30;;;;;;6248648;22;20018;-86
2021/01/25 00:11:45;;;;;;;9.17;3.77;;;2.70;84.30;;;;;;6248950;22;20077;-86
2021/01/25 00:14:11;;;;;;;7.17;3.50;;;2.70;84.70;;;;;;6249015;22;20458;-86
2021/01/25 00:16:36;;;;;;;7.53;3.40;;;2.70;84.80;;;;;;6275912;22;20014;-86
2021/01/25 00:19:02;;;;;;;7.10;3.40;;;2.70;84.80;;;;;;6248222;22;20035;-86
2021/01/25 00:21:28;;;;;;;8.37;3.47;;;2.70;85.20;;;;;;6276935;22;20057;-86
2021/01/25 00:23:53;;;;;;;7.33;3.50;;;2.70;83.90;;;;;;6250005;22;20008;-86
2021/01/25 00:26:19;;;;;;;7.07;3.60;;;2.70;84.70;;;;;;6249867;22;20311;-85
2021/01/25 00:28:45;;;;;;;6.30;3.60;;;2.70;85.30;;;;;;6248940;22;20049;-86
2021/01/25 00:31:10;;;;;;;7.50;3.40;;;2.70;84.90;;;;;;6247952;22;20003;-86
2021/01/25 00:33:36;;;;;;;8.70;3.03;;;2.70;83.70;;;;;;6277034;22;20071;-87
2021/01/25 00:36:02;;;;;;;8.67;3.50;;;2.70;84.10;;;;;;6277052;22;19996;-86
2021/01/25 00:38:27;;;;;;;8.40;3.17;;;2.60;84.50;;;;;;6254100;22;20025;-86
2021/01/25 00:40:53;;;;;;;7.27;3.40;;;2.70;84.40;;;;;;6287625;22;19999;-86
2021/01/25 00:43:19;;;;;;;6.43;3.33;;;2.70;84.40;;;;;;6287382;22;20375;-87
2021/01/25 00:45:44;;;;;;;7.30;3.20;;;2.70;84.60;;;;;;6254366;22;20449;-86
2021/01/25 00:48:10;;;;;;;8.17;3.23;;;2.70;84.30;;;;;;6249677;22;20003;-86
2021/01/25 00:50:35;;;;;;;7.10;3.43;;;2.70;84.10;;;;;;6249332;22;20011;-87
2021/01/25 00:53:01;;;;;;;5.77;3.20;;;2.70;84.50;;;;;;6275834;22;20010;-87
2021/01/25 00:55:27;;;;;;;9.10;3.27;;;2.70;84.10;;;;;;6248993;22;20004;-86
2021/01/25 00:57:52;;;;;;;7.50;3.07;;;2.70;84.20;;;;;;6276519;22;20007;-87
2021/01/25 01:00:18;;;;;;;9.33;3.40;;;2.80;84.30;;;;;;6249487;22;20018;-87
2021/01/25 01:02:44;;;;;;;9.90;3.30;;;2.80;84.20;;;;;;6250003;22;20000;-86
2021/01/25 01:05:10;;;;;;;6.17;3.20;;;2.80;85.00;;;;;;6250181;22;20004;-87
2021/01/25 01:07:36;;;;;;;6.43;3.63;;;2.70;84.50;;;;;;6249519;22;20443;-86
2021/01/25 01:10:03;;;;;;;8.27;3.37;;;2.70;84.00;;;;;;6298953;22;20015;-83
2021/01/25 01:12:28;;;;;;;7.00;3.00;;;2.70;84.70;;;;;;6307830;22;20384;-83
2021/01/25 01:14:54;;;;;;;7.70;3.23;;;2.70;84.40;;;;;;6280698;22;20003;-83
2021/01/25 01:17:19;;;;;;;5.70;3.17;;;2.70;84.30;;;;;;6308125;22;20007;-82
2021/01/25 01:19:45;;;;;;;6.53;2.83;;;2.80;84.80;;;;;;6286729;22;20034;-81
2021/01/25 01:22:11;;;;;;;7.33;3.10;;;2.80;84.50;;;;;;6250146;22;20008;-83
2021/01/25 01:24:36;;;;;;;6.40;2.80;;;2.80;85.20;;;;;;6277075;22;20004;-82
2021/01/25 01:27:02;;;;;;;8.67;3.37;;;2.80;84.80;;;;;;6277308;22;20438;-83
2021/01/25 01:29:28;;;;;;;6.67;3.27;;;2.80;84.90;;;;;;6276575;22;20303;-83
2021/01/25 01:31:54;;;;;;;6.80;3.17;;;2.80;85.70;;;;;;6277669;22;20000;-82
2021/01/25 01:34:19;;;;;;;5.37;3.00;;;2.80;83.90;;;;;;6277858;22;20011;-83
2021/01/25 01:36:45;;;;;;;6.93;3.17;;;2.70;84.50;;;;;;6277577;22;20006;-82
2021/01/25 01:39:11;;;;;;;7.33;3.70;;;2.70;84.50;;;;;;6277007;22;20042;-82
2021/01/25 01:41:37;;;;;;;10.17;3.50;;;2.70;84.20;;;;;;6249881;22;20004;-82
2021/01/25 01:44:07;;;;;;;6.30;2.93;;;2.70;85.40;;;;;;6276716;22;20034;-81
2021/01/25 01:46:34;;;;;;;8.88;3.90;;;2.70;84.90;;;;;;6277015;22;20026;-82
2021/01/25 01:49:00;;;;;;;7.77;3.50;;;2.70;85.40;;;;;;6249269;22;20372;-81
2021/01/25 01:51:26;;;;;;;7.80;3.90;;;2.70;85.50;;;;;;6276940;22;20450;-81
2021/01/25 01:53:53;;;;;;;8.30;3.60;;;2.80;85.10;;;;;;6277229;22;20007;-82
2021/01/25 01:56:19;;;;;;;7.03;3.67;;;2.80;85.20;;;;;;6249760;22;20409;-82
2021/01/25 01:58:44;;;;;;;7.70;3.07;;;2.80;85.30;;;;;;6277549;22;19999;-83
2021/01/25 02:01:10;;;;;;;6.23;3.20;;;2.70;84.60;;;;;;6252460;22;20004;-82
2021/01/25 02:03:36;;;;;;;7.03;3.43;;;2.70;85.10;;;;;;6280410;22;20008;-83
2021/01/25 02:06:04;;;;;;;6.73;3.40;;;2.70;84.90;;;;;;6278944;22;20053;-83
2021/01/25 02:08:31;;;;;;;9.50;3.70;;;2.70;85.00;;;;;;6275972;22;20007;-82
2021/01/25 02:10:57;;;;;;;7.23;3.57;;;2.70;85.10;;;;;;6274849;22;20054;-82
2021/01/25 02:13:24;;;;;;;6.67;3.13;;;2.60;85.60;;;;;;6275864;22;20008;-83
2021/01/25 02:15:51;;;;;;;8.40;3.57;;;2.70;85.20;;;;;;6275420;22;20054;-82
2021/01/25 02:18:17;;;;;;;7.80;3.57;;;2.70;85.50;;;;;;6248321;22;20435;-83
2021/01/25 02:20:44;;;;;;;8.03;3.50;;;2.60;85.40;;;;;;6247656;22;19996;-82
2021/01/25 02:23:27;;;;;;;7.43;3.40;;;2.60;85.70;;;;;;6248204;22;20011;-82
2021/01/25 02:26:01;;;;;;;7.70;3.37;;;2.60;86.10;;;;;;6275426;22;20474;-82
2021/01/25 02:28:29;;;;;;;6.87;3.20;;;2.60;86.60;;;;;;6275537;22;20075;-82
2021/01/25 02:30:55;;;;;;;7.37;3.73;;;2.60;86.00;;;;;;6276095;22;20004;-82
2021/01/25 02:33:22;;;;;;;7.70;3.20;;;2.70;85.90;;;;;;6277527;22;20006;-82
2021/01/25 02:35:48;;;;;;;10.67;3.70;;;2.60;86.20;;;;;;6277608;22;20588;-82
2021/01/25 02:38:17;;;;;;;7.23;3.60;;;2.60;86.30;;;;;;6250205;22;20015;-81
2021/01/25 02:40:47;;;;;;;6.78;3.50;;;2.60;86.40;;;;;;6276857;22;20422;-82
2021/01/25 02:43:14;;;;;;;8.53;3.63;;;2.60;86.40;;;;;;6277034;22;20000;-82
2021/01/25 02:45:42;;;;;;;7.33;3.60;;;2.60;86.30;;;;;;6250126;22;20046;-82
2021/01/25 02:48:08;;;;;;;6.40;3.33;;;2.60;86.30;;;;;;6277213;22;20010;-82
2021/01/25 02:50:34;;;;;;;6.97;3.40;;;2.60;86.40;;;;;;6276603;22;19996;-83
2021/01/25 02:53:00;;;;;;;7.80;3.90;;;2.60;86.70;;;;;;6250167;22;20000;-82
2021/01/25 02:55:26;;;;;;;6.33;3.30;;;2.60;86.80;;;;;;6277047;22;20311;-82
2021/01/25 02:57:55;;;;;;;6.60;3.13;;;2.60;86.10;;;;;;6277205;22;20003;-82
2021/01/25 03:00:21;;;;;;;7.25;3.92;;;2.60;86.70;;;;;;6249614;22;20007;-82
2021/01/25 03:02:47;;;;;;;6.67;3.30;;;2.60;86.90;;;;;;6276888;22;20010;-82
2021/01/25 03:05:13;;;;;;;8.03;3.77;;;2.60;86.70;;;;;;6276820;22;20055;-83
2021/01/25 03:07:38;;;;;;;5.93;2.97;;;2.60;86.70;;;;;;6277005;22;20208;-82
2021/01/25 03:10:05;;;;;;;6.07;3.20;;;2.60;86.90;;;;;;6276582;22;20014;-82
2021/01/25 03:12:31;;;;;;;5.33;3.10;;;2.60;86.90;;;;;;6276779;22;20000;-82
2021/01/25 03:14:58;;;;;;;5.57;2.83;;;2.60;86.70;;;;;;6276893;22;20000;-82
2021/01/25 03:17:23;;;;;;;5.53;3.00;;;2.60;86.70;;;;;;6277023;22;20007;-82
2021/01/25 03:19:49;;;;;;;5.47;2.90;;;2.70;87.00;;;;;;6276189;22;20030;-82
2021/01/25 03:22:15;;;;;;;5.53;2.90;;;2.60;86.70;;;;;;6248197;22;20007;-82
2021/01/25 03:24:41;;;;;;;6.63;3.23;;;2.70;87.20;;;;;;6248671;22;20010;-82
2021/01/25 03:27:07;;;;;;;6.60;3.00;;;2.70;86.80;;;;;;6249751;22;19999;-83
2021/01/25 03:29:33;;;;;;;7.27;3.10;;;2.70;86.80;;;;;;6276092;22;20330;-82
2021/01/25 03:31:59;;;;;;;6.20;3.07;;;2.70;87.40;;;;;;6276721;22;20003;-82
2021/01/25 03:34:24;;;;;;;5.07;2.67;;;2.60;86.40;;;;;;6276853;22;20004;-82
2021/01/25 03:36:50;;;;;;;7.37;2.77;;;2.60;86.30;;;;;;6249649;22;20014;-82
2021/01/25 03:39:16;;;;;;;7.87;2.97;;;2.60;86.70;;;;;;6276095;22;20000;-82
2021/01/25 03:41:41;;;;;;;8.13;3.33;;;2.60;87.00;;;;;;6276473;22;20011;-82
2021/01/25 03:44:07;;;;;;;4.60;2.60;;;2.60;87.20;;;;;;6276932;22;20004;-83
2021/01/25 03:46:32;;;;;;;5.70;2.80;;;2.70;87.20;;;;;;6276480;22;20307;-82
2021/01/25 03:48:58;;;;;;;6.10;2.60;;;2.60;87.20;;;;;;6275817;22;20007;-82
2021/01/25 03:51:24;;;;;;;6.37;2.77;;;2.60;87.20;;;;;;6276385;22;20082;-83
2021/01/25 03:53:49;;;;;;;4.60;2.77;;;2.60;87.20;;;;;;6276774;22;20014;-82
2021/01/25 03:56:15;;;;;;;7.20;2.97;;;2.60;87.90;;;;;;6249373;22;20066;-82
2021/01/25 03:58:42;;;;;;;6.40;2.70;;;2.60;87.40;;;;;;6249908;22;20003;-82
2021/01/25 04:01:08;;;;;;;4.87;2.90;;;2.60;87.50;;;;;;6275457;22;20438;-81
2021/01/25 04:03:34;;;;;;;7.37;3.57;;;2.60;87.10;;;;;;6276109;22;20007;-81
2021/01/25 04:06:00;;;;;;;6.93;3.23;;;2.60;87.00;;;;;;6276383;22;20099;-81
2021/01/25 04:08:25;;;;;;;10.40;6.57;;;2.60;87.40;;;;;;6276152;22;20003;-80
2021/01/25 04:10:51;;;;;;;6.67;3.57;;;2.60;87.50;;;;;;6276451;22;19991;-81
2021/01/25 04:13:17;;;;;;;7.87;3.80;;;2.50;87.40;;;;;;6277812;22;19996;-81
2021/01/25 04:15:42;;;;;;;6.00;3.40;;;2.50;87.40;;;;;;6250387;22;20006;-82
2021/01/25 04:18:08;;;;;;;7.93;3.23;;;2.50;87.60;;;;;;6277715;22;20049;-82
2021/01/25 04:20:34;;;;;;;7.17;3.10;;;2.50;88.10;;;;;;6276999;22;20079;-82
2021/01/25 04:23:00;;;;;;;5.70;2.90;;;2.60;87.60;;;;;;6250291;22;20007;-82
2021/01/25 04:25:25;;;;;;;6.73;2.77;;;2.50;88.10;;;;;;6277739;22;20087;-81
2021/01/25 04:27:51;;;;;;;4.63;2.70;;;2.50;88.20;;;;;;6277685;22;20027;-82
2021/01/25 04:30:17;;;;;;;9.37;3.00;;;2.50;88.10;;;;;;6276592;22;19999;-83
2021/01/25 04:32:43;;;;;;;5.20;2.70;;;2.50;88.10;;;;;;6277478;22;20300;-82
2021/01/25 04:35:14;;;;;;;7.17;3.20;;;2.50;88.30;;;;;;6277236;22;20014;-82
2021/01/25 04:37:41;;;;;;;5.20;3.23;;;2.60;88.30;;;;;;6276955;22;20004;-82
2021/01/25 04:40:07;;;;;;;6.60;2.90;;;2.50;88.20;;;;;;6276470;22;20000;-82
2021/01/25 04:42:35;;;;;;;5.77;2.77;;;2.60;88.40;;;;;;6249867;22;20004;-82
2021/01/25 04:45:02;;;;;;;5.80;2.80;;;2.50;88.30;;;;;;6250777;22;20031;-82
2021/01/25 04:47:28;;;;;;;5.47;2.90;;;2.50;88.40;;;;;;6277321;22;20335;-83
2021/01/25 04:49:55;;;;;;;9.97;3.40;;;2.50;88.20;;;;;;6276357;22;19996;-83
2021/01/25 04:52:20;;;;;;;6.10;2.73;;;2.50;88.50;;;;;;6277118;22;20468;-82
2021/01/25 04:54:47;;;;;;;4.77;2.77;;;2.50;88.60;;;;;;6250650;22;20003;-83
2021/01/25 04:57:16;;;;;;;5.07;3.10;;;2.50;88.80;;;;;;6250582;22;20011;-83
2021/01/25 04:59:44;;;;;;;5.95;2.65;;;2.50;88.40;;;;;;6276868;22;20042;-83
2021/01/25 05:02:10;;;;;;;5.20;2.57;;;2.50;88.40;;;;;;6250010;22;20004;-82
2021/01/25 05:04:36;;;;;;;9.13;3.60;;;2.50;88.60;;;;;;6277054;22;20031;-83
2021/01/25 05:07:02;;;;;;;6.60;3.30;;;2.50;88.60;;;;;;6277173;22;20030;-82
2021/01/25 05:09:27;;;;;;;8.30;3.30;;;2.50;89.40;;;;;;6275331;22;20007;-82
2021/01/25 05:12:01;;;;;;;5.73;3.07;;;2.50;88.90;;;;;;6276310;22;20006;-82
2021/01/25 05:14:43;;;;;;;8.23;3.20;;;2.50;89.00;;;;;;6276306;22;20003;-80
2021/01/25 05:17:15;;;;;;;7.93;3.50;;;2.50;89.30;;;;;;6275478;22;20034;-80
2021/01/25 05:19:44;;;;;;;6.00;3.40;;;2.50;89.70;;;;;;6248017;22;20086;-80
2021/01/25 05:22:18;;;;;;;5.53;3.20;;;2.50;89.10;;;;;;6275519;22;20004;-80
2021/01/25 05:24:54;;;;;;;7.43;3.20;;;2.50;89.30;;;;;;6275684;22;20021;-80
2021/01/25 05:27:26;;;;;;;7.77;3.37;;;2.60;90.00;;;;;;6275823;22;20485;-80
2021/01/25 05:29:52;;;;;;;6.23;2.97;;;2.60;89.20;;;;;;6274813;22;20049;-80
2021/01/25 05:32:19;;;;;;;7.33;3.50;;;2.60;88.80;;;;;;6275284;22;20422;-82
2021/01/25 05:34:48;;;;;;;5.57;3.00;;;2.60;88.60;;;;;;6276018;22;20005;-82
2021/01/25 05:37:18;;;;;;;5.95;3.17;;;2.60;88.70;;;;;;6249265;22;20473;-83
2021/01/25 05:39:45;;;;;;;6.40;3.27;;;2.60;89.00;;;;;;6275100;22;19999;-82
2021/01/25 05:42:12;;;;;;;4.97;3.00;;;2.60;88.70;;;;;;6275829;22;20488;-82
2021/01/25 05:44:37;;;;;;;7.57;3.67;;;2.60;88.70;;;;;;6275696;22;20003;-82
2021/01/25 05:47:08;;;;;;;6.53;3.43;;;2.60;88.60;;;;;;6248694;22;20023;-82
2021/01/25 05:49:35;;;;;;;16.93;6.23;;;2.60;88.90;;;;;;6274797;22;20049;-82
2021/01/25 05:52:01;;;;;;;7.87;4.00;;;2.60;88.80;;;;;;6248373;22;20000;-82
2021/01/25 05:54:27;;;;;;;6.80;3.80;;;2.70;88.80;;;;;;6275531;22;19999;-80
2021/01/25 05:56:53;;;;;;;9.97;3.57;;;2.60;88.60;;;;;;6275281;22;20023;-80
2021/01/25 05:59:20;;;;;;;9.63;5.20;;;2.70;88.70;;;;;;6274637;22;20086;-80
2021/01/25 06:01:49;;;;;;;9.33;4.13;;;2.70;88.80;;;;;;6275901;22;19999;-80
2021/01/25 06:04:16;;;;;;;;;;;2.70;89.00;;;;;;6249540;22;20431;-81
2021/01/25 06:07:01;;;;;;;6.70;3.03;;;2.70;88.90;;;;;;6278002;22;20247;-81
2021/01/25 06:09:50;;;;;;;8.37;3.37;;;2.70;88.90;;;;;;6249870;22;20091;-80
2021/01/25 06:12:20;;;;;;;8.07;3.83;;;2.70;88.70;;;;;;6277022;22;20072;-81
2021/01/25 06:14:55;;;;;;;9.47;3.60;;;2.70;88.70;;;;;;6277150;22;20498;-80
2021/01/25 06:17:22;;;;;;;6.83;3.53;;;2.60;88.60;;;;;;6250098;22;20035;-81
2021/01/25 06:19:49;;;;;;;12.73;3.70;;;2.60;88.90;;;;;;6249211;22;20415;-80
2021/01/25 06:22:16;;;;;;;6.37;3.60;;;2.60;89.80;;;;;;6277144;22;20334;-80
2021/01/25 06:24:42;;;;;;;6.17;3.50;;;2.60;89.60;;;;;;6277120;22;20027;-81
2021/01/25 06:27:13;;;;;;;7.57;3.87;;;2.50;89.60;;;;;;6250272;22;20007;-80
2021/01/25 06:29:39;;;;;;;6.93;3.83;;;2.50;90.00;;;;;;6276602;22;20003;-81
2021/01/25 06:32:05;;;;;;;7.87;3.60;;;2.50;90.00;;;;;;6277294;22;20000;-80
2021/01/25 06:34:30;;;;;;;8.10;4.27;;;2.60;89.60;;;;;;6250175;22;20027;-81
2021/01/25 06:36:56;;;;;;;6.80;4.13;;;2.60;89.80;;;;;;6277387;22;20004;-81
2021/01/25 06:39:30;;;;;;;8.97;4.27;;;2.60;89.80;;;;;;6276710;22;20010;-80
2021/01/25 06:42:04;;;;;;;8.70;4.10;;;2.60;89.70;;;;;;6250742;22;20053;-80
2021/01/25 06:44:31;;;;;;;7.43;4.10;;;2.70;89.60;;;;;;6277393;22;20003;-80
2021/01/25 06:46:58;;;;;;;8.20;4.07;;;2.60;89.50;;;;;;6250158;22;20011;-81
2021/01/25 06:49:26;;;;;;;7.40;3.87;;;2.60;89.60;;;;;;6277705;22;19999;-81
2021/01/25 06:51:53;;;;;;;8.43;3.93;;;2.60;89.70;;;;;;6278161;22;20006;-81
2021/01/25 06:54:23;;;;;;;8.93;4.00;;;2.60;89.90;;;;;;6277873;22;20011;-80
2021/01/25 06:56:57;;;;;;;8.77;4.33;;;2.60;89.70;;;;;;6277378;22;20008;-81
2021/01/25 06:59:25;;;;;;;7.60;4.03;;;2.60;89.60;;;;;;6276511;22;20008;-80
2021/01/25 07:01:52;;;;;;;9.03;4.10;;;2.60;90.20;;;;;;6277756;22;20426;-81
2021/01/25 07:04:25;;;;;;;9.70;4.37;;;2.60;89.80;;;;;;6250076;22;20074;-81
2021/01/25 07:06:55;;;;;;;8.00;3.93;;;2.60;90.00;;;;;;6249944;22;20008;-80
2021/01/25 07:09:28;;;;;;;8.23;4.20;;;2.60;90.00;;;;;;6277067;22;20388;-82
2021/01/25 07:11:58;;;;;;;6.93;4.27;;;2.50;89.70;;;;;;6276941;22;20002;-82
2021/01/25 07:14:26;;;;;;;7.77;4.43;;;2.50;89.90;;;;;;6276935;22;20512;-82
2021/01/25 07:16:53;;;;;;;9.67;4.80;;;2.50;89.40;;;;;;6250315;22;20004;-82
2021/01/25 07:19:20;;;;;;;9.93;4.47;;;2.60;89.90;;;;;;6277101;22;20003;-82
2021/01/25 07:21:48;;;;;;;10.17;4.77;;;2.60;89.60;;;;;;6276941;22;20003;-83
2021/01/25 07:24:22;;;;;;;9.57;4.67;;;2.60;89.90;;;;;;6277735;22;20008;-83
2021/01/25 07:26:56;;;;;;;9.60;4.73;;;2.60;89.50;;;;;;6250402;22;20345;-83
2021/01/25 07:29:23;;;;;;;10.53;5.30;;;2.60;89.30;;;;;;6276891;22;20078;-83
2021/01/25 07:31:51;;;;;;;10.67;5.67;;;2.60;89.60;;;;;;6250147;22;20003;-83
2021/01/25 07:34:17;;;;;;;10.03;5.97;;;2.60;89.40;;;;;;6250659;22;20008;-82
2021/01/25 07:36:43;;;;;;;11.83;6.00;;;2.60;89.30;;;;;;6277667;22;20023;-82
2021/01/25 07:39:13;;;;;;;11.87;6.57;;;2.60;89.20;;;;;;6276774;22;20418;-82
2021/01/25 07:41:40;;;;;;;13.17;5.87;;;2.60;89.40;;;;;;6250142;22;20012;-83
2021/01/25 07:44:07;;;;;;;11.03;5.80;;;2.60;89.60;;;;;;6250137;22;20448;-83
2021/01/25 07:46:33;;;;;;;11.17;6.10;;;2.60;89.80;;;;;;6277206;22;20074;-83
2021/01/25 07:48:59;;;;;;;12.63;6.90;;;2.50;89.80;;;;;;6249018;22;20419;-82
2021/01/25 07:51:27;;;;;;;13.03;7.50;;;2.50;90.00;;;;;;6250383;22;20027;-82
2021/01/25 07:53:54;;;;;;;17.17;7.50;;;2.60;89.80;;;;;;6277886;22;20003;-82
2021/01/25 07:56:23;;;;;;;15.47;7.73;;;2.50;90.20;;;;;;6250109;22;20090;-82
2021/01/25 07:58:49;;;;;;;13.70;6.00;;;2.50;89.90;;;;;;6250044;22;20007;-82
2021/01/25 08:01:26;;;;;;;13.83;7.73;;;2.50;90.00;;;;;;6277068;22;20484;-83
2021/01/25 08:03:56;;;;;;;13.87;6.93;;;2.50;90.20;;;;;;6250410;22;20004;-83
2021/01/25 08:06:22;;;;;;;12.33;7.20;;;2.50;90.10;;;;;;6250556;22;20025;-83
2021/01/25 08:08:50;;;;;;;14.87;7.40;;;2.50;90.20;;;;;;6276625;22;20371;-82
2021/01/25 08:11:18;;;;;;;17.33;8.00;;;2.50;90.20;;;;;;6277084;22;19996;-82
2021/01/25 08:13:56;;;;;;;14.67;7.43;;;2.50;90.30;;;;;;6277586;22;20082;-83
2021/01/25 08:16:25;;;;;;;13.60;7.63;;;2.50;90.30;;;;;;6277749;22;20415;-82
2021/01/25 08:18:55;;;;;;;14.30;7.40;;;2.50;90.30;;;;;;6277603;22;20234;-82
2021/01/25 08:21:26;;;;;;;13.73;8.20;;;2.50;90.30;;;;;;6276707;22;20006;-83
2021/01/25 08:23:57;;;;;;;14.87;7.93;;;2.50;90.50;;;;;;6250315;22;20003;-82
2021/01/25 08:26:25;;;;;;;15.20;7.90;;;2.60;90.50;;;;;;6277413;22;20004;-83
2021/01/25 08:28:58;;;;;;;14.53;8.00;;;2.60;90.40;;;;;;6276711;22;20007;-82
2021/01/25 08:31:50;;;;;;;13.90;7.20;;;2.50;90.50;;;;;;6276926;22;20003;-83
2021/01/25 08:34:31;;;;;;;15.97;7.83;;;2.50;90.40;;;;;;6243520;22;20004;-82
2021/01/25 08:37:01;;;;;;;20.10;9.27;;;2.60;90.60;;;;;;6277645;22;20004;-82
2021/01/25 08:39:46;;;;;;;14.53;8.07;;;2.60;90.40;;;;;;6276153;22;20068;-82
2021/01/25 08:42:20;;;;;;;15.37;8.47;;;2.60;90.20;;;;;;6277253;22;20020;-82
2021/01/25 08:45:03;;;;;;;14.23;8.10;;;2.60;90.10;;;;;;6277048;22;20000;-83
2021/01/25 08:47:31;;;;;;;15.33;8.17;;;2.60;90.50;;;;;;6276951;22;19999;-82
2021/01/25 08:49:58;;;;;;;12.40;8.03;;;2.60;90.30;;;;;;6276418;22;20004;-82
2021/01/25 08:52:35;;;;;;;16.80;9.43;;;2.60;90.10;;;;;;6277123;22;19996;-83
2021/01/25 08:55:10;;;;;;;18.83;9.63;;;2.60;90.20;;;;;;6277727;22;20027;-82
2021/01/25 08:57:42;;;;;;;16.87;9.03;;;2.60;90.20;;;;;;6277363;22;20361;-82
2021/01/25 09:00:16;;;;;;;16.20;9.00;;;2.60;90.20;;;;;;6276185;22;20036;-82
2021/01/25 09:02:43;;;;;;;18.17;8.73;;;2.60;90.20;;;;;;6277141;22;20000;-83
2021/01/25 09:05:10;;;;;;;17.27;9.17;;;2.60;90.10;;;;;;6276756;22;20012;-82
2021/01/25 09:07:35;;;;;;;16.80;8.87;;;2.70;90.10;;;;;;6276669;22;20003;-82
2021/01/25 09:10:01;;;;;;;14.30;8.33;;;2.70;90.30;;;;;;6248783;22;20012;-82
2021/01/25 09:12:26;;;;;;;22.27;9.47;;;2.70;90.00;;;;;;6276717;22;20373;-82
2021/01/25 09:14:52;;;;;;;17.53;8.67;;;2.70;90.20;;;;;;6276850;22;20003;-83
2021/01/25 09:17:18;;;;;;;15.83;9.23;;;2.70;90.00;;;;;;6277034;22;20023;-82
2021/01/25 09:19:44;;;;;;;17.40;9.30;;;2.70;89.90;;;;;;6275844;22;20419;-82
2021/01/25 09:22:11;;;;;;;15.07;9.07;;;2.70;90.00;;;;;;6249316;22;20012;-82
2021/01/25 09:24:41;;;;;;;17.07;9.17;;;2.70;90.00;;;;;;6276841;22;20000;-82
2021/01/25 09:27:07;;;;;;;16.10;8.98;;;2.80;89.60;;;;;;6276958;22;20397;-83
2021/01/25 09:29:33;;;;;;;15.80;9.03;;;2.80;89.80;;;;;;6248188;22;20090;-83
2021/01/25 09:31:58;;;;;;;14.43;9.03;;;2.80;89.60;;;;;;6276468;22;20007;-82
2021/01/25 09:34:24;;;;;;;16.93;9.20;;;2.80;89.20;;;;;;6249104;22;20006;-82
2021/01/25 09:36:50;;;;;;;16.60;9.03;;;2.80;89.30;;;;;;6249436;22;20061;-83
2021/01/25 09:39:17;;;;;;;12.70;8.00;;;2.80;89.40;;;;;;6248778;22;20004;-83
2021/01/25 09:41:46;;;;;;;16.53;8.63;;;2.80;89.20;;;;;;6248949;22;20426;-82
2021/01/25 09:44:13;;;;;;;16.13;8.80;;;2.80;89.00;;;;;;6276271;22;20078;-82
2021/01/25 09:46:39;;;;;;;15.90;9.40;;;2.90;88.90;;;;;;6276451;22;20109;-83
2021/01/25 09:49:05;;;;;;;15.20;8.93;;;2.90;89.10;;;;;;6275710;22;20006;-82
2021/01/25 09:51:31;;;;;;;18.53;8.90;;;2.90;88.90;;;;;;6278031;22;20004;-81
2021/01/25 09:53:56;;;;;;;17.93;9.27;;;2.90;88.30;;;;;;6251924;22;20493;-82
2021/01/25 09:56:22;;;;;;;16.80;9.07;;;2.90;88.20;;;;;;6278000;22;20369;-82
2021/01/25 09:58:47;;;;;;;17.93;9.20;;;3.00;88.40;;;;;;6277462;22;19999;-82
2021/01/25 10:01:13;;;;;;;14.30;8.40;;;3.00;88.50;;;;;;6278541;22;20006;-83
2021/01/25 10:03:38;;;;;;;16.43;8.83;;;2.90;87.90;;;;;;6277629;22;20330;-82
2021/01/25 10:06:04;;;;;;;15.63;8.60;;;3.00;87.80;;;;;;6250763;22;20003;-82
2021/01/25 10:08:30;;;;;;;17.27;8.97;;;3.00;88.00;;;;;;6279860;22;20060;-83
2021/01/25 10:10:56;;;;;;;14.27;8.63;;;3.00;87.80;;;;;;6279140;22;20075;-83
2021/01/25 10:13:23;;;;;;;17.97;8.33;;;3.00;87.70;;;;;;6279686;22;20006;-82
2021/01/25 10:15:49;;;;;;;14.87;8.97;;;3.00;88.20;;;;;;6278467;22;20101;-83
2021/01/25 10:18:14;;;;;;;15.33;8.57;;;3.10;87.90;;;;;;6278549;22;20427;-82
2021/01/25 10:20:42;;;;;;;17.37;9.53;;;3.10;88.00;;;;;;6278152;22;20000;-82
2021/01/25 10:23:08;;;;;;;14.53;8.30;;;3.10;87.90;;;;;;6277911;22;20385;-82
2021/01/25 10:25:34;;;;;;;14.70;7.83;;;3.10;87.70;;;;;;6250625;22;20004;-82
2021/01/25 10:28:01;;;;;;;12.90;8.33;;;3.10;87.10;;;;;;6277286;22;19999;-82
2021/01/25 10:30:27;;;;;;;14.43;8.73;;;3.10;87.00;;;;;;6276370;22;20019;-82
2021/01/25 10:32:53;;;;;;;16.40;8.93;;;3.10;87.70;;;;;;6276622;22;19996;-82
2021/01/25 10:35:19;;;;;;;18.40;9.93;;;3.20;87.80;;;;;;6278759;22;20011;-82
2021/01/25 10:37:45;;;;;;;14.97;7.63;;;3.20;87.80;;;;;;6277810;22;20030;-83
2021/01/25 10:40:12;;;;;;;13.97;7.77;;;3.20;86.80;;;;;;6250331;22;20004;-81
2021/01/25 10:42:37;;;;;;;14.33;7.60;;;3.30;86.70;;;;;;6250422;22;20011;-83
2021/01/25 10:45:04;;;;;;;12.57;6.73;;;3.20;85.40;;;;;;6277750;22;20445;-82
2021/01/25 10:47:29;;;;;;;13.10;7.10;;;3.10;85.00;;;;;;6278513;22;19999;-82
2021/01/25 10:49:56;;;;;;;11.73;6.93;;;3.20;85.20;;;;;;6250574;22;20334;-82
2021/01/25 10:52:21;;;;;;;13.70;6.83;;;3.20;85.20;;;;;;6279604;22;19996;-81
2021/01/25 10:54:47;;;;;;;12.07;6.57;;;3.20;85.20;;;;;;6252474;22;20037;-81
2021/01/25 10:57:13;;;;;;;11.20;7.00;;;3.20;85.00;;;;;;6279072;22;20004;-82
2021/01/25 10:59:39;;;;;;;12.87;6.33;;;3.20;84.80;;;;;;6250893;22;20004;-82
2021/01/25 11:02:05;;;;;;;11.57;6.60;;;3.10;84.20;;;;;;6251048;22;20038;-82
2021/01/25 11:04:31;;;;;;;13.53;7.57;;;3.10;84.70;;;;;;6278368;22;20432;-82
2021/01/25 11:06:56;;;;;;;13.30;7.50;;;3.10;85.30;;;;;;6278705;22;20010;-82
2021/01/25 11:09:22;;;;;;;12.50;7.03;;;3.20;85.30;;;;;;6250537;22;20018;-82
2021/01/25 11:11:50;;;;;;;12.93;6.70;;;3.20;84.70;;;;;;6250935;22;20003;-83
2021/01/25 11:14:16;;;;;;;16.83;6.77;;;3.20;85.30;;;;;;6278420;22;20016;-83
2021/01/25 11:16:42;;;;;;;11.07;6.83;;;3.20;84.70;;;;;;6278986;22;20014;-82
2021/01/25 11:19:09;;;;;;;11.10;6.23;;;3.20;84.80;;;;;;6278565;22;20007;-82
2021/01/25 11:21:34;;;;;;;12.80;6.93;;;3.30;84.70;;;;;;6278159;22;20003;-82
2021/01/25 11:24:00;;;;;;;14.37;7.30;;;3.30;84.40;;;;;;6278104;22;20053;-82
2021/01/25 11:26:27;;;;;;;14.03;7.50;;;3.30;83.70;;;;;;6278545;22;20049;-82
2021/01/25 11:28:53;;;;;;;13.33;7.87;;;3.20;83.50;;;;;;6249920;22;20008;-82
2021/01/25 11:31:19;;;;;;;16.30;8.23;;;3.20;84.20;;;;;;6251249;22;20394;-82
2021/01/25 11:33:44;;;;;;;18.10;9.83;;;3.20;84.50;;;;;;6278659;22;20082;-83
2021/01/25 11:36:10;;;;;;;21.43;10.17;;;3.20;85.30;;;;;;6278216;22;20331;-82
2021/01/25 11:38:35;;;;;;;20.40;10.70;;;3.20;86.10;;;;;;6278431;22;20000;-82
2021/01/25 11:41:02;;;;;;;20.00;10.50;;;3.10;85.90;;;;;;6277432;22;19999;-82
2021/01/25 11:43:28;;;;;;;19.87;10.60;;;3.10;86.30;;;;;;6278206;22;20000;-82
2021/01/25 11:45:53;;;;;;;22.87;11.40;;;3.00;86.20;;;;;;6278323;22;20004;-83
2021/01/25 11:48:20;;;;;;;24.70;12.23;;;3.00;86.50;;;;;;6276316;22;20004;-83
2021/01/25 11:50:47;;;;;;;24.47;12.40;;;3.00;85.80;;;;;;6277272;22;20090;-82
2021/01/25 11:53:13;;;;;;;28.67;12.70;;;3.00;85.80;;;;;;6250609;22;20339;-82
2021/01/25 11:55:40;;;;;;;27.30;12.80;;;3.00;84.90;;;;;;6251412;22;20000;-82
2021/01/25 11:58:05;;;;;;;22.10;12.27;;;3.10;85.20;;;;;;6278064;22;20000;-82
2021/01/25 12:00:31;;;;;;;23.97;11.97;;;3.10;85.00;;;;;;6278443;22;20030;-82
2021/01/25 12:02:56;;;;;;;22.50;12.50;;;3.10;85.10;;;;;;6275726;22;20014;-82
2021/01/25 12:05:22;;;;;;;21.23;11.80;;;3.10;85.10;;;;;;6278140;22;20008;-82
2021/01/25 12:07:47;;;;;;;21.90;12.13;;;3.20;84.90;;;;;;6278224;22;20402;-82
2021/01/25 12:10:13;;;;;;;21.43;11.50;;;3.30;84.30;;;;;;6277017;22;20004;-83
2021/01/25 12:12:39;;;;;;;17.67;10.07;;;3.30;84.10;;;;;;6278084;22;20008;-82
2021/01/25 12:15:06;;;;;;;19.50;11.13;;;3.40;84.10;;;;;;6277868;22;20000;-83
2021/01/25 12:17:31;;;;;;;26.27;13.23;;;3.40;83.70;;;;;;6279522;22;20004;-83
2021/01/25 12:19:57;;;;;;;23.63;12.90;;;3.30;82.80;;;;;;6277051;22;19999;-82
2021/01/25 12:22:22;;;;;;;28.60;14.03;;;3.30;83.30;;;;;;6277957;22;20011;-82
2021/01/25 12:24:48;;;;;;;25.30;14.03;;;3.30;83.60;;;;;;6278535;22;20008;-83
2021/01/25 12:27:14;;;;;;;27.13;13.93;;;3.30;84.00;;;;;;6277775;22;20385;-82
2021/01/25 12:29:40;;;;;;;25.60;14.73;;;3.30;83.60;;;;;;6277635;22;19996;-83
2021/01/25 12:32:05;;;;;;;27.80;14.20;;;3.30;84.40;;;;;;6278173;22;20006;-83
2021/01/25 12:34:34;;;;;;;27.63;15.17;;;3.30;84.20;;;;;;6277932;22;20003;-82
2021/01/25 12:37:00;;;;;;;30.70;14.70;;;3.30;84.50;;;;;;6277459;22;20318;-82
2021/01/25 12:39:25;;;;;;;30.33;14.93;;;3.30;84.90;;;;;;6277784;22;20004;-83
2021/01/25 12:41:51;;;;;;;26.40;13.70;;;3.30;85.10;;;;;;6277811;22;20069;-82
2021/01/25 12:44:17;;;;;;;24.67;13.83;;;3.40;84.60;;;;;;6277769;22;20006;-82
2021/01/25 12:46:44;;;;;;;25.87;13.40;;;3.30;84.20;;;;;;6277328;22;20011;-83
2021/01/25 12:49:11;;;;;;;25.03;12.80;;;3.40;84.50;;;;;;6276671;22;19996;-82
2021/01/25 12:51:37;;;;;;;24.80;12.93;;;3.40;84.60;;;;;;6276448;22;20027;-82
2021/01/25 12:54:03;;;;;;;21.23;11.57;;;3.40;83.50;;;;;;6278449;22;20006;-83